sensor_id;sensor_type;location;lat;lon;timestamp;P1;durP1;ratioP1;P2;durP2;ratioP2
35777;SDS011;21899;42.662;23.316;2023-02-15T00:01:46;42.05;;;18.42;;
35777;SDS011;21899;42.662;23.316;2023-02-15T00:04:12;51.92;;;23.85;;
35777;SDS011;21899;42.662;23.316;2023-02-15T00:06:39;53.00;;;25.88;;
35777;SDS011;21899;42.662;23.316;2023-02-15T00:09:04;50.83;;;23.52;;
35777;SDS011;21899;42.662;23.316;2023-02-15T00:11:29;54.47;;;25.52;;
35777;SDS011;21899;42.662;23.316;2023-02-15T00:14:08;53.33;;;24.55;;
35777;SDS011;21899;42.662;23.316;2023-02-15T00:16:35;51.40;;;25.70;;
35777;SDS011;21899;42.662;23.316;2023-02-15T00:19:02;53.03;;;24.92;;
35777;SDS011;21899;42.662;23.316;2023-02-15T00:21:29;50.42;;;23.92;;
35777;SDS011;21899;42.662;23.316;2023-02-15T00:23:56;56.40;;;25.95;;
35777;SDS011;21899;42.662;23.316;2023-02-15T00:26:23;46.38;;;23.48;;
35777;SDS011;21899;42.662;23.316;2023-02-15T00:28:48;56.53;;;25.83;;
35777;SDS011;21899;42.662;23.316;2023-02-15T00:31:14;46.95;;;19.98;;
35777;SDS011;21899;42.662;23.316;2023-02-15T00:33:39;51.65;;;23.10;;
35777;SDS011;21899;42.662;23.316;2023-02-15T00:36:06;48.20;;;22.92;;
35777;SDS011;21899;42.662;23.316;2023-02-15T00:38:33;52.42;;;23.13;;
35777;SDS011;21899;42.662;23.316;2023-02-15T00:40:59;46.63;;;22.33;;
35777;SDS011;21899;42.662;23.316;2023-02-15T00:43:27;51.17;;;23.85;;
35777;SDS011;21899;42.662;23.316;2023-02-15T00:45:53;49.70;;;23.05;;
35777;SDS011;21899;42.662;23.316;2023-02-15T00:48:19;47.83;;;23.25;;
35777;SDS011;21899;42.662;23.316;2023-02-15T00:50:49;45.15;;;22.02;;
35777;SDS011;21899;42.662;23.316;2023-02-15T00:53:15;50.97;;;23.17;;
35777;SDS011;21899;42.662;23.316;2023-02-15T00:55:41;51.20;;;24.42;;
35777;SDS011;21899;42.662;23.316;2023-02-15T00:58:07;47.63;;;23.33;;
35777;SDS011;21899;42.662;23.316;2023-02-15T01:00:33;45.92;;;22.27;;
35777;SDS011;21899;42.662;23.316;2023-02-15T01:02:59;47.92;;;22.77;;
35777;SDS011;21899;42.662;23.316;2023-02-15T01:05:24;45.05;;;22.50;;
35777;SDS011;21899;42.662;23.316;2023-02-15T01:07:50;47.80;;;21.88;;
35777;SDS011;21899;42.662;23.316;2023-02-15T01:10:15;47.67;;;21.85;;
35777;SDS011;21899;42.662;23.316;2023-02-15T01:12:41;51.13;;;22.00;;
35777;SDS011;21899;42.662;23.316;2023-02-15T01:15:07;46.55;;;23.50;;
35777;SDS011;21899;42.662;23.316;2023-02-15T01:17:32;48.03;;;21.50;;
35777;SDS011;21899;42.662;23.316;2023-02-15T01:19:58;46.55;;;22.00;;
35777;SDS011;21899;42.662;23.316;2023-02-15T01:22:24;44.88;;;21.95;;
35777;SDS011;21899;42.662;23.316;2023-02-15T01:24:50;49.92;;;22.52;;
35777;SDS011;21899;42.662;23.316;2023-02-15T01:27:15;45.85;;;21.10;;
35777;SDS011;21899;42.662;23.316;2023-02-15T01:29:41;49.58;;;22.10;;
35777;SDS011;21899;42.662;23.316;2023-02-15T01:32:06;45.78;;;21.85;;
35777;SDS011;21899;42.662;23.316;2023-02-15T01:34:32;46.55;;;23.35;;
35777;SDS011;21899;42.662;23.316;2023-02-15T01:36:57;51.42;;;23.10;;
35777;SDS011;21899;42.662;23.316;2023-02-15T01:39:22;51.08;;;22.70;;
35777;SDS011;21899;42.662;23.316;2023-02-15T01:41:48;49.65;;;22.90;;
35777;SDS011;21899;42.662;23.316;2023-02-15T01:49:57;43.55;;;21.33;;
35777;SDS011;21899;42.662;23.316;2023-02-15T01:52:32;46.95;;;21.42;;
35777;SDS011;21899;42.662;23.316;2023-02-15T01:55:01;45.92;;;22.85;;
35777;SDS011;21899;42.662;23.316;2023-02-15T01:57:27;49.88;;;23.33;;
35777;SDS011;21899;42.662;23.316;2023-02-15T01:59:54;48.92;;;23.33;;
35777;SDS011;21899;42.662;23.316;2023-02-15T02:02:23;47.30;;;22.55;;
35777;SDS011;21899;42.662;23.316;2023-02-15T02:04:51;49.90;;;22.58;;
35777;SDS011;21899;42.662;23.316;2023-02-15T02:07:22;47.25;;;24.02;;
35777;SDS011;21899;42.662;23.316;2023-02-15T02:09:51;46.40;;;23.02;;
35777;SDS011;21899;42.662;23.316;2023-02-15T02:12:17;41.00;;;20.55;;
35777;SDS011;21899;42.662;23.316;2023-02-15T02:14:43;46.97;;;21.73;;
35777;SDS011;21899;42.662;23.316;2023-02-15T02:33:49;46.53;;;21.67;;
35777;SDS011;21899;42.662;23.316;2023-02-15T02:39:37;42.92;;;20.38;;
35777;SDS011;21899;42.662;23.316;2023-02-15T02:42:08;46.17;;;21.88;;
35777;SDS011;21899;42.662;23.316;2023-02-15T02:50:21;45.15;;;20.23;;
35777;SDS011;21899;42.662;23.316;2023-02-15T02:52:49;44.65;;;20.73;;
35777;SDS011;21899;42.662;23.316;2023-02-15T02:55:29;39.72;;;20.10;;
35777;SDS011;21899;42.662;23.316;2023-02-15T02:58:04;40.13;;;19.50;;
35777;SDS011;21899;42.662;23.316;2023-02-15T03:00:40;42.42;;;20.25;;
35777;SDS011;21899;42.662;23.316;2023-02-15T03:03:11;43.15;;;20.85;;
35777;SDS011;21899;42.662;23.316;2023-02-15T03:05:41;41.00;;;20.52;;
35777;SDS011;21899;42.662;23.316;2023-02-15T03:08:10;46.05;;;22.00;;
35777;SDS011;21899;42.662;23.316;2023-02-15T03:10:46;44.17;;;21.58;;
35777;SDS011;21899;42.662;23.316;2023-02-15T03:13:13;44.58;;;21.58;;
35777;SDS011;21899;42.662;23.316;2023-02-15T03:15:39;44.47;;;19.38;;
35777;SDS011;21899;42.662;23.316;2023-02-15T03:18:26;39.10;;;19.48;;
35777;SDS011;21899;42.662;23.316;2023-02-15T03:20:55;42.58;;;20.30;;
35777;SDS011;21899;42.662;23.316;2023-02-15T03:23:25;40.10;;;19.90;;
35777;SDS011;21899;42.662;23.316;2023-02-15T03:25:57;39.38;;;19.77;;
35777;SDS011;21899;42.662;23.316;2023-02-15T03:28:27;41.72;;;19.98;;
35777;SDS011;21899;42.662;23.316;2023-02-15T03:30:58;39.72;;;20.15;;
35777;SDS011;21899;42.662;23.316;2023-02-15T03:33:27;40.35;;;19.65;;
35777;SDS011;21899;42.662;23.316;2023-02-15T03:35:57;39.83;;;20.55;;
35777;SDS011;21899;42.662;23.316;2023-02-15T03:38:43;39.88;;;20.20;;
35777;SDS011;21899;42.662;23.316;2023-02-15T03:41:16;38.50;;;19.13;;
35777;SDS011;21899;42.662;23.316;2023-02-15T03:46:15;40.25;;;20.38;;
35777;SDS011;21899;42.662;23.316;2023-02-15T03:48:49;42.22;;;19.58;;
35777;SDS011;21899;42.662;23.316;2023-02-15T03:51:19;37.35;;;19.02;;
35777;SDS011;21899;42.662;23.316;2023-02-15T03:57:03;37.55;;;18.77;;
35777;SDS011;21899;42.662;23.316;2023-02-15T03:59:48;37.92;;;19.25;;
35777;SDS011;21899;42.662;23.316;2023-02-15T04:02:38;42.67;;;19.73;;
35777;SDS011;21899;42.662;23.316;2023-02-15T04:05:24;35.35;;;18.75;;
35777;SDS011;21899;42.662;23.316;2023-02-15T04:07:49;36.88;;;18.17;;
35777;SDS011;21899;42.662;23.316;2023-02-15T04:10:15;40.03;;;19.45;;
35777;SDS011;21899;42.662;23.316;2023-02-15T04:12:59;38.45;;;19.23;;
35777;SDS011;21899;42.662;23.316;2023-02-15T04:15:24;40.45;;;18.95;;
35777;SDS011;21899;42.662;23.316;2023-02-15T04:18:08;35.63;;;16.30;;
35777;SDS011;21899;42.662;23.316;2023-02-15T04:20:34;38.03;;;18.67;;
35777;SDS011;21899;42.662;23.316;2023-02-15T04:23:18;36.85;;;18.20;;
35777;SDS011;21899;42.662;23.316;2023-02-15T04:26:05;35.90;;;18.73;;
35777;SDS011;21899;42.662;23.316;2023-02-15T04:28:30;38.47;;;19.30;;
35777;SDS011;21899;42.662;23.316;2023-02-15T04:30:56;40.70;;;19.73;;
35777;SDS011;21899;42.662;23.316;2023-02-15T04:33:21;42.25;;;20.10;;
35777;SDS011;21899;42.662;23.316;2023-02-15T04:35:46;39.67;;;19.73;;
35777;SDS011;21899;42.662;23.316;2023-02-15T04:38:12;36.92;;;19.20;;
35777;SDS011;21899;42.662;23.316;2023-02-15T04:40:37;40.20;;;19.63;;
35777;SDS011;21899;42.662;23.316;2023-02-15T04:43:02;38.42;;;20.17;;
35777;SDS011;21899;42.662;23.316;2023-02-15T04:45:28;39.20;;;19.52;;
35777;SDS011;21899;42.662;23.316;2023-02-15T04:47:53;37.40;;;18.92;;
35777;SDS011;21899;42.662;23.316;2023-02-15T04:50:19;41.67;;;19.02;;
35777;SDS011;21899;42.662;23.316;2023-02-15T04:52:44;45.53;;;21.20;;
35777;SDS011;21899;42.662;23.316;2023-02-15T04:55:09;39.72;;;19.40;;
35777;SDS011;21899;42.662;23.316;2023-02-15T04:57:35;43.78;;;20.85;;
35777;SDS011;21899;42.662;23.316;2023-02-15T05:00:00;39.67;;;19.45;;
35777;SDS011;21899;42.662;23.316;2023-02-15T05:02:26;41.78;;;20.58;;
35777;SDS011;21899;42.662;23.316;2023-02-15T05:04:51;43.33;;;20.50;;
35777;SDS011;21899;42.662;23.316;2023-02-15T05:07:17;39.10;;;19.55;;
35777;SDS011;21899;42.662;23.316;2023-02-15T05:09:42;38.03;;;18.77;;
35777;SDS011;21899;42.662;23.316;2023-02-15T05:12:08;39.92;;;19.98;;
35777;SDS011;21899;42.662;23.316;2023-02-15T05:14:33;41.30;;;20.33;;
35777;SDS011;21899;42.662;23.316;2023-02-15T05:16:59;38.67;;;20.52;;
35777;SDS011;21899;42.662;23.316;2023-02-15T05:19:26;38.78;;;19.27;;
35777;SDS011;21899;42.662;23.316;2023-02-15T05:21:52;40.33;;;19.65;;
35777;SDS011;21899;42.662;23.316;2023-02-15T05:24:17;40.45;;;19.98;;
35777;SDS011;21899;42.662;23.316;2023-02-15T05:27:01;40.17;;;19.33;;
35777;SDS011;21899;42.662;23.316;2023-02-15T05:29:45;44.28;;;20.38;;
35777;SDS011;21899;42.662;23.316;2023-02-15T05:32:12;38.58;;;19.38;;
35777;SDS011;21899;42.662;23.316;2023-02-15T05:34:39;36.42;;;19.88;;
35777;SDS011;21899;42.662;23.316;2023-02-15T05:37:04;41.03;;;19.90;;
35777;SDS011;21899;42.662;23.316;2023-02-15T05:39:29;36.22;;;18.48;;
35777;SDS011;21899;42.662;23.316;2023-02-15T05:41:57;35.85;;;18.55;;
35777;SDS011;21899;42.662;23.316;2023-02-15T05:44:24;40.20;;;18.20;;
35777;SDS011;21899;42.662;23.316;2023-02-15T05:46:50;43.13;;;19.85;;
35777;SDS011;21899;42.662;23.316;2023-02-15T05:49:15;34.80;;;18.10;;
35777;SDS011;21899;42.662;23.316;2023-02-15T05:51:40;38.35;;;19.15;;
35777;SDS011;21899;42.662;23.316;2023-02-15T05:54:06;38.65;;;19.45;;
35777;SDS011;21899;42.662;23.316;2023-02-15T05:56:31;39.17;;;19.42;;
35777;SDS011;21899;42.662;23.316;2023-02-15T05:58:57;42.50;;;20.02;;
35777;SDS011;21899;42.662;23.316;2023-02-15T06:01:22;38.53;;;19.00;;
35777;SDS011;21899;42.662;23.316;2023-02-15T06:03:48;45.40;;;20.55;;
35777;SDS011;21899;42.662;23.316;2023-02-15T06:06:14;38.58;;;19.55;;
35777;SDS011;21899;42.662;23.316;2023-02-15T06:08:40;38.00;;;18.45;;
35777;SDS011;21899;42.662;23.316;2023-02-15T06:11:05;38.75;;;19.05;;
35777;SDS011;21899;42.662;23.316;2023-02-15T06:13:31;39.53;;;18.77;;
35777;SDS011;21899;42.662;23.316;2023-02-15T06:15:57;37.58;;;18.45;;
35777;SDS011;21899;42.662;23.316;2023-02-15T06:18:22;37.92;;;17.52;;
35777;SDS011;21899;42.662;23.316;2023-02-15T06:20:48;36.95;;;17.95;;
35777;SDS011;21899;42.662;23.316;2023-02-15T06:23:14;38.38;;;18.40;;
35777;SDS011;21899;42.662;23.316;2023-02-15T06:25:40;34.63;;;17.35;;
35777;SDS011;21899;42.662;23.316;2023-02-15T06:28:05;37.17;;;18.77;;
35777;SDS011;21899;42.662;23.316;2023-02-15T06:30:31;36.25;;;17.80;;
35777;SDS011;21899;42.662;23.316;2023-02-15T06:32:56;35.38;;;17.30;;
35777;SDS011;21899;42.662;23.316;2023-02-15T06:35:22;35.80;;;17.55;;
35777;SDS011;21899;42.662;23.316;2023-02-15T06:37:47;38.05;;;18.83;;
35777;SDS011;21899;42.662;23.316;2023-02-15T06:40:13;38.83;;;18.05;;
35777;SDS011;21899;42.662;23.316;2023-02-15T06:42:39;30.90;;;16.30;;
35777;SDS011;21899;42.662;23.316;2023-02-15T06:45:06;31.50;;;17.02;;
35777;SDS011;21899;42.662;23.316;2023-02-15T06:47:32;32.00;;;15.55;;
35777;SDS011;21899;42.662;23.316;2023-02-15T06:49:57;35.90;;;18.17;;
35777;SDS011;21899;42.662;23.316;2023-02-15T06:52:23;35.97;;;17.45;;
35777;SDS011;21899;42.662;23.316;2023-02-15T06:54:48;31.85;;;16.75;;
35777;SDS011;21899;42.662;23.316;2023-02-15T06:57:14;34.92;;;15.73;;
35777;SDS011;21899;42.662;23.316;2023-02-15T06:59:39;31.27;;;15.23;;
35777;SDS011;21899;42.662;23.316;2023-02-15T07:02:05;28.48;;;15.00;;
35777;SDS011;21899;42.662;23.316;2023-02-15T07:04:30;30.25;;;14.90;;
35777;SDS011;21899;42.662;23.316;2023-02-15T07:06:55;31.63;;;16.17;;
35777;SDS011;21899;42.662;23.316;2023-02-15T07:09:21;33.30;;;15.80;;
35777;SDS011;21899;42.662;23.316;2023-02-15T07:11:47;29.33;;;14.43;;
35777;SDS011;21899;42.662;23.316;2023-02-15T07:14:31;27.90;;;13.93;;
35777;SDS011;21899;42.662;23.316;2023-02-15T07:16:56;29.02;;;14.27;;
35777;SDS011;21899;42.662;23.316;2023-02-15T07:19:22;23.90;;;13.18;;
35777;SDS011;21899;42.662;23.316;2023-02-15T07:21:47;32.20;;;15.13;;
35777;SDS011;21899;42.662;23.316;2023-02-15T07:24:13;27.42;;;14.75;;
35777;SDS011;21899;42.662;23.316;2023-02-15T07:26:39;30.55;;;14.25;;
35777;SDS011;21899;42.662;23.316;2023-02-15T07:29:04;29.85;;;13.95;;
35777;SDS011;21899;42.662;23.316;2023-02-15T07:31:30;30.02;;;14.55;;
35777;SDS011;21899;42.662;23.316;2023-02-15T07:33:55;26.67;;;13.32;;
35777;SDS011;21899;42.662;23.316;2023-02-15T07:36:21;27.10;;;13.95;;
35777;SDS011;21899;42.662;23.316;2023-02-15T07:38:46;27.35;;;15.18;;
35777;SDS011;21899;42.662;23.316;2023-02-15T07:41:13;29.30;;;13.00;;
35777;SDS011;21899;42.662;23.316;2023-02-15T07:43:40;29.35;;;13.60;;
35777;SDS011;21899;42.662;23.316;2023-02-15T07:46:11;26.85;;;12.98;;
35777;SDS011;21899;42.662;23.316;2023-02-15T07:48:38;24.30;;;12.35;;
35777;SDS011;21899;42.662;23.316;2023-02-15T07:51:06;25.20;;;13.75;;
35777;SDS011;21899;42.662;23.316;2023-02-15T07:53:33;24.60;;;12.40;;
35777;SDS011;21899;42.662;23.316;2023-02-15T07:56:00;26.95;;;14.10;;
35777;SDS011;21899;42.662;23.316;2023-02-15T07:58:26;24.52;;;12.68;;
35777;SDS011;21899;42.662;23.316;2023-02-15T08:01:12;26.15;;;13.07;;
35777;SDS011;21899;42.662;23.316;2023-02-15T08:03:38;26.55;;;14.15;;
35777;SDS011;21899;42.662;23.316;2023-02-15T08:06:04;28.80;;;14.27;;
35777;SDS011;21899;42.662;23.316;2023-02-15T08:08:30;25.77;;;12.55;;
35777;SDS011;21899;42.662;23.316;2023-02-15T08:13:43;22.85;;;13.30;;
35777;SDS011;21899;42.662;23.316;2023-02-15T08:16:19;26.50;;;14.13;;
35777;SDS011;21899;42.662;23.316;2023-02-15T08:18:45;24.05;;;14.23;;
35777;SDS011;21899;42.662;23.316;2023-02-15T08:21:10;25.98;;;13.07;;
35777;SDS011;21899;42.662;23.316;2023-02-15T08:23:35;25.70;;;12.77;;
35777;SDS011;21899;42.662;23.316;2023-02-15T08:26:01;31.52;;;13.35;;
35777;SDS011;21899;42.662;23.316;2023-02-15T08:28:26;22.40;;;12.20;;
35777;SDS011;21899;42.662;23.316;2023-02-15T08:30:51;27.98;;;14.50;;
35777;SDS011;21899;42.662;23.316;2023-02-15T08:33:17;26.52;;;12.48;;
35777;SDS011;21899;42.662;23.316;2023-02-15T08:35:43;24.65;;;13.18;;
35777;SDS011;21899;42.662;23.316;2023-02-15T08:38:08;23.88;;;12.90;;
35777;SDS011;21899;42.662;23.316;2023-02-15T08:40:33;22.67;;;12.75;;
35777;SDS011;21899;42.662;23.316;2023-02-15T08:42:59;26.40;;;13.43;;
35777;SDS011;21899;42.662;23.316;2023-02-15T08:45:25;25.92;;;13.50;;
35777;SDS011;21899;42.662;23.316;2023-02-15T08:47:50;26.17;;;13.20;;
35777;SDS011;21899;42.662;23.316;2023-02-15T08:50:15;26.73;;;13.45;;
35777;SDS011;21899;42.662;23.316;2023-02-15T08:52:41;27.83;;;13.95;;
35777;SDS011;21899;42.662;23.316;2023-02-15T08:55:06;32.30;;;12.73;;
35777;SDS011;21899;42.662;23.316;2023-02-15T08:57:32;24.35;;;13.00;;
35777;SDS011;21899;42.662;23.316;2023-02-15T08:59:57;23.42;;;13.45;;
35777;SDS011;21899;42.662;23.316;2023-02-15T09:02:22;25.92;;;13.65;;
35777;SDS011;21899;42.662;23.316;2023-02-15T09:04:48;22.92;;;12.88;;
35777;SDS011;21899;42.662;23.316;2023-02-15T09:07:13;25.05;;;12.05;;
35777;SDS011;21899;42.662;23.316;2023-02-15T09:09:38;18.63;;;11.13;;
35777;SDS011;21899;42.662;23.316;2023-02-15T09:12:04;23.63;;;13.20;;
35777;SDS011;21899;42.662;23.316;2023-02-15T09:14:29;21.42;;;11.50;;
35777;SDS011;21899;42.662;23.316;2023-02-15T09:16:55;25.08;;;13.65;;
35777;SDS011;21899;42.662;23.316;2023-02-15T09:19:21;25.17;;;13.23;;
35777;SDS011;21899;42.662;23.316;2023-02-15T09:21:47;23.63;;;12.90;;
35777;SDS011;21899;42.662;23.316;2023-02-15T09:24:14;24.92;;;13.35;;
35777;SDS011;21899;42.662;23.316;2023-02-15T09:26:41;24.10;;;13.32;;
35777;SDS011;21899;42.662;23.316;2023-02-15T09:29:09;27.40;;;13.75;;
35777;SDS011;21899;42.662;23.316;2023-02-15T09:31:39;30.20;;;14.48;;
35777;SDS011;21899;42.662;23.316;2023-02-15T09:34:09;26.30;;;14.00;;
35777;SDS011;21899;42.662;23.316;2023-02-15T09:36:36;26.17;;;13.93;;
35777;SDS011;21899;42.662;23.316;2023-02-15T09:39:13;22.17;;;12.70;;
35777;SDS011;21899;42.662;23.316;2023-02-15T09:57:33;27.73;;;14.63;;
35777;SDS011;21899;42.662;23.316;2023-02-15T10:00:15;28.67;;;15.15;;
35777;SDS011;21899;42.662;23.316;2023-02-15T10:19:15;29.55;;;16.10;;
35777;SDS011;21899;42.662;23.316;2023-02-15T10:27:36;27.27;;;15.30;;
35777;SDS011;21899;42.662;23.316;2023-02-15T10:30:10;30.35;;;16.15;;
35777;SDS011;21899;42.662;23.316;2023-02-15T10:49:05;27.45;;;14.98;;
35777;SDS011;21899;42.662;23.316;2023-02-15T10:54:28;25.02;;;13.68;;
35777;SDS011;21899;42.662;23.316;2023-02-15T11:08:32;30.15;;;15.80;;
35777;SDS011;21899;42.662;23.316;2023-02-15T11:11:06;25.77;;;14.73;;
35777;SDS011;21899;42.662;23.316;2023-02-15T11:13:42;26.95;;;15.10;;
35777;SDS011;21899;42.662;23.316;2023-02-15T11:16:17;30.52;;;16.90;;
35777;SDS011;21899;42.662;23.316;2023-02-15T11:18:52;26.88;;;15.18;;
35777;SDS011;21899;42.662;23.316;2023-02-15T11:21:26;30.02;;;16.02;;
35777;SDS011;21899;42.662;23.316;2023-02-15T11:24:09;27.98;;;14.77;;
35777;SDS011;21899;42.662;23.316;2023-02-15T11:31:55;27.90;;;14.73;;
35777;SDS011;21899;42.662;23.316;2023-02-15T11:37:00;25.75;;;14.48;;
35777;SDS011;21899;42.662;23.316;2023-02-15T11:39:30;26.70;;;15.25;;
35777;SDS011;21899;42.662;23.316;2023-02-15T11:42:02;25.90;;;12.77;;
35777;SDS011;21899;42.662;23.316;2023-02-15T11:44:37;27.60;;;15.00;;
35777;SDS011;21899;42.662;23.316;2023-02-15T11:47:10;34.08;;;16.13;;
35777;SDS011;21899;42.662;23.316;2023-02-15T11:49:36;31.23;;;15.48;;
35777;SDS011;21899;42.662;23.316;2023-02-15T11:52:07;31.00;;;15.45;;
35777;SDS011;21899;42.662;23.316;2023-02-15T11:54:39;29.13;;;16.50;;
35777;SDS011;21899;42.662;23.316;2023-02-15T11:57:11;32.05;;;16.13;;
35777;SDS011;21899;42.662;23.316;2023-02-15T11:59:38;30.92;;;16.38;;
35777;SDS011;21899;42.662;23.316;2023-02-15T12:02:17;28.95;;;15.70;;
35777;SDS011;21899;42.662;23.316;2023-02-15T12:04:58;28.08;;;15.50;;
35777;SDS011;21899;42.662;23.316;2023-02-15T12:07:32;32.95;;;16.92;;
35777;SDS011;21899;42.662;23.316;2023-02-15T12:10:18;34.35;;;16.85;;
35777;SDS011;21899;42.662;23.316;2023-02-15T12:12:49;32.70;;;16.48;;
35777;SDS011;21899;42.662;23.316;2023-02-15T12:15:33;31.47;;;16.53;;
35777;SDS011;21899;42.662;23.316;2023-02-15T12:18:00;30.67;;;15.63;;
35777;SDS011;21899;42.662;23.316;2023-02-15T12:20:28;30.13;;;15.25;;
35777;SDS011;21899;42.662;23.316;2023-02-15T12:23:00;31.02;;;17.02;;
35777;SDS011;21899;42.662;23.316;2023-02-15T12:25:40;31.08;;;15.57;;
35777;SDS011;21899;42.662;23.316;2023-02-15T12:31:00;31.33;;;16.42;;
35777;SDS011;21899;42.662;23.316;2023-02-15T12:33:29;32.95;;;16.92;;
35777;SDS011;21899;42.662;23.316;2023-02-15T12:39:02;34.00;;;17.17;;
35777;SDS011;21899;42.662;23.316;2023-02-15T12:41:36;30.63;;;16.60;;
35777;SDS011;21899;42.662;23.316;2023-02-15T12:44:23;27.60;;;15.43;;
35777;SDS011;21899;42.662;23.316;2023-02-15T12:49:35;31.70;;;16.57;;
35777;SDS011;21899;42.662;23.316;2023-02-15T12:52:22;32.10;;;16.63;;
35777;SDS011;21899;42.662;23.316;2023-02-15T12:54:50;29.17;;;15.63;;
35777;SDS011;21899;42.662;23.316;2023-02-15T12:57:24;33.00;;;17.90;;
35777;SDS011;21899;42.662;23.316;2023-02-15T13:02:41;30.23;;;16.05;;
35777;SDS011;21899;42.662;23.316;2023-02-15T13:08:20;34.08;;;16.88;;
35777;SDS011;21899;42.662;23.316;2023-02-15T13:10:54;31.83;;;16.23;;
35777;SDS011;21899;42.662;23.316;2023-02-15T13:13:24;32.20;;;16.40;;
35777;SDS011;21899;42.662;23.316;2023-02-15T13:15:53;30.48;;;15.77;;
35777;SDS011;21899;42.662;23.316;2023-02-15T13:18:27;34.60;;;16.00;;
35777;SDS011;21899;42.662;23.316;2023-02-15T13:20:56;31.88;;;16.92;;
35777;SDS011;21899;42.662;23.316;2023-02-15T13:23:28;31.05;;;17.73;;
35777;SDS011;21899;42.662;23.316;2023-02-15T13:25:55;31.73;;;17.38;;
35777;SDS011;21899;42.662;23.316;2023-02-15T13:28:33;33.85;;;17.30;;
35777;SDS011;21899;42.662;23.316;2023-02-15T13:31:14;28.48;;;15.32;;
35777;SDS011;21899;42.662;23.316;2023-02-15T13:33:43;34.00;;;17.92;;
35777;SDS011;21899;42.662;23.316;2023-02-15T13:39:00;31.65;;;16.13;;
35777;SDS011;21899;42.662;23.316;2023-02-15T13:55:36;30.45;;;16.65;;
35777;SDS011;21899;42.662;23.316;2023-02-15T14:01:16;33.05;;;17.60;;
35777;SDS011;21899;42.662;23.316;2023-02-15T14:14:28;32.88;;;16.83;;
35777;SDS011;21899;42.662;23.316;2023-02-15T14:19:46;32.80;;;17.50;;
35777;SDS011;21899;42.662;23.316;2023-02-15T14:30:36;35.88;;;18.70;;
35777;SDS011;21899;42.662;23.316;2023-02-15T14:35:53;36.10;;;18.50;;
35777;SDS011;21899;42.662;23.316;2023-02-15T14:38:42;33.90;;;18.23;;
35777;SDS011;21899;42.662;23.316;2023-02-15T14:41:30;34.65;;;17.80;;
35777;SDS011;21899;42.662;23.316;2023-02-15T14:44:26;35.25;;;17.27;;
35777;SDS011;21899;42.662;23.316;2023-02-15T14:47:10;39.47;;;17.90;;
35777;SDS011;21899;42.662;23.316;2023-02-15T14:49:44;35.72;;;18.80;;
35777;SDS011;21899;42.662;23.316;2023-02-15T14:52:10;36.88;;;18.73;;
35777;SDS011;21899;42.662;23.316;2023-02-15T15:01:55;38.50;;;19.00;;
35777;SDS011;21899;42.662;23.316;2023-02-15T15:04:27;37.25;;;19.42;;
35777;SDS011;21899;42.662;23.316;2023-02-15T15:06:59;36.83;;;19.17;;
35777;SDS011;21899;42.662;23.316;2023-02-15T15:09:45;34.17;;;17.55;;
35777;SDS011;21899;42.662;23.316;2023-02-15T15:14:49;37.78;;;20.55;;
35777;SDS011;21899;42.662;23.316;2023-02-15T15:22:29;39.55;;;18.92;;
35777;SDS011;21899;42.662;23.316;2023-02-15T15:24:59;38.63;;;19.25;;
35777;SDS011;21899;42.662;23.316;2023-02-15T15:32:38;36.85;;;18.65;;
35777;SDS011;21899;42.662;23.316;2023-02-15T15:37:56;36.85;;;18.75;;
35777;SDS011;21899;42.662;23.316;2023-02-15T15:49:00;35.20;;;18.85;;
35777;SDS011;21899;42.662;23.316;2023-02-15T15:51:31;36.83;;;18.98;;
35777;SDS011;21899;42.662;23.316;2023-02-15T15:53:58;42.13;;;20.05;;
35777;SDS011;21899;42.662;23.316;2023-02-15T15:56:27;46.70;;;20.27;;
35777;SDS011;21899;42.662;23.316;2023-02-15T15:59:00;39.97;;;21.17;;
35777;SDS011;21899;42.662;23.316;2023-02-15T16:01:30;35.77;;;20.63;;
35777;SDS011;21899;42.662;23.316;2023-02-15T16:04:03;38.63;;;20.58;;
35777;SDS011;21899;42.662;23.316;2023-02-15T16:06:30;40.08;;;20.20;;
35777;SDS011;21899;42.662;23.316;2023-02-15T16:09:09;42.78;;;20.33;;
35777;SDS011;21899;42.662;23.316;2023-02-15T16:11:38;40.05;;;19.65;;
35777;SDS011;21899;42.662;23.316;2023-02-15T16:14:17;44.30;;;21.52;;
35777;SDS011;21899;42.662;23.316;2023-02-15T16:16:56;38.47;;;20.95;;
35777;SDS011;21899;42.662;23.316;2023-02-15T16:19:28;42.60;;;22.23;;
35777;SDS011;21899;42.662;23.316;2023-02-15T16:22:07;39.92;;;19.63;;
35777;SDS011;21899;42.662;23.316;2023-02-15T16:24:51;41.83;;;20.08;;
35777;SDS011;21899;42.662;23.316;2023-02-15T16:27:42;44.88;;;22.50;;
35777;SDS011;21899;42.662;23.316;2023-02-15T16:30:54;44.53;;;22.80;;
35777;SDS011;21899;42.662;23.316;2023-02-15T16:35:35;45.67;;;22.67;;
35777;SDS011;21899;42.662;23.316;2023-02-15T16:38:03;42.53;;;21.70;;
35777;SDS011;21899;42.662;23.316;2023-02-15T16:40:38;45.83;;;21.17;;
35777;SDS011;21899;42.662;23.316;2023-02-15T16:43:10;43.35;;;22.08;;
35777;SDS011;21899;42.662;23.316;2023-02-15T16:45:49;43.50;;;22.50;;
35777;SDS011;21899;42.662;23.316;2023-02-15T16:48:20;45.50;;;21.52;;
35777;SDS011;21899;42.662;23.316;2023-02-15T16:50:52;42.13;;;21.77;;
35777;SDS011;21899;42.662;23.316;2023-02-15T16:53:22;44.50;;;22.10;;
35777;SDS011;21899;42.662;23.316;2023-02-15T16:55:50;44.28;;;22.73;;
35777;SDS011;21899;42.662;23.316;2023-02-15T17:01:05;41.47;;;20.98;;
35777;SDS011;21899;42.662;23.316;2023-02-15T17:03:34;50.55;;;23.63;;
35777;SDS011;21899;42.662;23.316;2023-02-15T17:06:00;50.90;;;23.00;;
35777;SDS011;21899;42.662;23.316;2023-02-15T17:11:03;50.67;;;22.90;;
35777;SDS011;21899;42.662;23.316;2023-02-15T17:19:21;44.78;;;21.73;;
35777;SDS011;21899;42.662;23.316;2023-02-15T17:21:59;50.53;;;23.10;;
35777;SDS011;21899;42.662;23.316;2023-02-15T17:24:41;46.85;;;24.10;;
35777;SDS011;21899;42.662;23.316;2023-02-15T17:27:20;49.97;;;22.67;;
35777;SDS011;21899;42.662;23.316;2023-02-15T17:29:52;45.45;;;23.08;;
35777;SDS011;21899;42.662;23.316;2023-02-15T17:32:22;45.87;;;23.50;;
35777;SDS011;21899;42.662;23.316;2023-02-15T17:40:35;46.92;;;23.38;;
35777;SDS011;21899;42.662;23.316;2023-02-15T17:42:57;47.35;;;23.52;;
35777;SDS011;21899;42.662;23.316;2023-02-15T17:45:30;46.78;;;22.83;;
35777;SDS011;21899;42.662;23.316;2023-02-15T17:47:58;43.88;;;21.80;;
35777;SDS011;21899;42.662;23.316;2023-02-15T17:50:26;41.83;;;20.70;;
35777;SDS011;21899;42.662;23.316;2023-02-15T17:52:53;45.75;;;22.90;;
35777;SDS011;21899;42.662;23.316;2023-02-15T17:55:21;43.95;;;21.00;;
35777;SDS011;21899;42.662;23.316;2023-02-15T17:58:00;40.67;;;19.38;;
35777;SDS011;21899;42.662;23.316;2023-02-15T18:00:27;45.10;;;20.95;;
35777;SDS011;21899;42.662;23.316;2023-02-15T18:03:12;40.78;;;20.38;;
35777;SDS011;21899;42.662;23.316;2023-02-15T18:05:56;37.38;;;19.35;;
35777;SDS011;21899;42.662;23.316;2023-02-15T18:08:41;33.63;;;17.38;;
35777;SDS011;21899;42.662;23.316;2023-02-15T18:11:25;36.63;;;18.48;;